createdAt,value
2016-08-14T00:00:17.393Z,17.63
2016-08-14T00:01:18.142Z,17.45
2016-08-14T00:02:17.852Z,17.41
2016-08-14T00:03:17.321Z,17.39
2016-08-14T00:04:17.646Z,17.39
2016-08-14T00:05:18.641Z,17.44
2016-08-14T00:06:17.701Z,17.44
2016-08-14T00:07:18.344Z,17.39
2016-08-14T00:08:18.312Z,17.51
2016-08-14T00:09:17.953Z,17.48
2016-08-14T00:10:18.533Z,17.41
2016-08-14T00:11:17.895Z,17.26
2016-08-14T00:12:18.612Z,17.39
2016-08-14T00:13:17.228Z,17.31
2016-08-14T00:14:17.719Z,17.34
2016-08-14T00:15:17.984Z,17.52
2016-08-14T00:16:17.316Z,17.42
2016-08-14T00:17:17.919Z,17.38
2016-08-14T00:18:17.659Z,17.38
2016-08-14T00:19:18.932Z,17.41
2016-08-14T00:20:18.352Z,17.51
2016-08-14T00:21:17.145Z,17.49
2016-08-14T00:22:20.575Z,17.48
2016-08-14T00:23:18.124Z,17.45
2016-08-14T00:24:19.814Z,17.33
2016-08-14T00:25:18.381Z,17.3
2016-08-14T00:26:19.279Z,17.24
2016-08-14T00:27:18.393Z,17.29
2016-08-14T00:28:19.464Z,17.39
2016-08-14T00:29:20.609Z,17.34
2016-08-14T00:30:18.279Z,17.44
2016-08-14T00:31:18.292Z,17.44
2016-08-14T00:32:18.028Z,17.38
2016-08-14T00:33:18.165Z,17.14
2016-08-14T00:34:19.187Z,17.16
2016-08-14T00:35:19.017Z,17.12
2016-08-14T00:36:18.305Z,17.12
2016-08-14T00:37:20.443Z,17.19
2016-08-14T00:38:19.338Z,17.09
2016-08-14T00:39:20.265Z,17.12
2016-08-14T00:40:19.328Z,17.09
2016-08-14T00:41:18.849Z,17.12
2016-08-14T00:42:19.157Z,17.04
2016-08-14T00:43:18.840Z,17.06
2016-08-14T00:44:19.069Z,17.11
2016-08-14T00:45:18.529Z,17.05
2016-08-14T00:46:19.881Z,17.01
2016-08-14T00:47:18.832Z,17.05
2016-08-14T00:48:20.676Z,17.12
2016-08-14T00:49:19.406Z,17.22
2016-08-14T00:50:19.803Z,17.14
2016-08-14T00:51:19.352Z,16.99
2016-08-14T00:52:19.834Z,17.04
2016-08-14T00:53:19.826Z,17.12
2016-08-14T00:54:19.555Z,17.22
2016-08-14T00:55:19.191Z,17.27
2016-08-14T00:56:18.884Z,17.22
2016-08-14T00:57:18.314Z,17.29
2016-08-14T00:58:19.564Z,17.27
2016-08-14T00:59:18.321Z,17.33
2016-08-14T01:00:19.888Z,17.24
2016-08-14T01:01:19.525Z,17.36
2016-08-14T01:02:19.462Z,17.16
2016-08-14T01:03:19.152Z,17.11
2016-08-14T01:04:19.847Z,17.05
2016-08-14T01:05:20.224Z,17.09
2016-08-14T01:06:20.434Z,17.09
2016-08-14T01:07:18.928Z,17.08
2016-08-14T01:08:19.383Z,17.15
2016-08-14T01:09:19.750Z,17.11
2016-08-14T01:10:19.211Z,17.16
2016-08-14T01:11:20.150Z,17.06
2016-08-14T01:12:21.008Z,17.09
2016-08-14T01:13:19.619Z,17.08
2016-08-14T01:14:20.372Z,17.08
2016-08-14T01:15:20.210Z,17.05
2016-08-14T01:16:19.672Z,17.12
2016-08-14T01:17:19.492Z,17.14
2016-08-14T01:18:20.382Z,17.05
2016-08-14T01:19:20.199Z,17.09
2016-08-14T01:20:20.429Z,16.99
2016-08-14T01:21:20.830Z,16.87
2016-08-14T01:22:20.058Z,16.91
2016-08-14T01:23:19.611Z,16.75
2016-08-14T01:24:20.115Z,16.66
2016-08-14T01:25:20.366Z,16.72
2016-08-14T01:26:19.968Z,16.69
2016-08-14T01:27:19.239Z,16.78
2016-08-14T01:28:20.259Z,16.76
2016-08-14T01:29:19.500Z,16.84
2016-08-14T01:30:19.251Z,16.89
2016-08-14T01:31:20.210Z,16.83
2016-08-14T01:32:19.679Z,16.86
2016-08-14T01:33:21.128Z,16.84
2016-08-14T01:34:19.659Z,16.93
2016-08-14T01:35:19.395Z,16.96
2016-08-14T01:36:19.916Z,17.14
2016-08-14T01:37:19.089Z,16.96
2016-08-14T01:38:21.450Z,17.02
2016-08-14T01:39:21.890Z,16.93
2016-08-14T01:40:20.486Z,17.01
2016-08-14T01:41:20.928Z,16.87
2016-08-14T01:42:20.428Z,16.91
2016-08-14T01:43:20.445Z,16.93
2016-08-14T01:44:22.445Z,16.91
2016-08-14T01:45:19.405Z,16.9
2016-08-14T01:46:20.379Z,16.89
2016-08-14T01:47:19.865Z,16.84
2016-08-14T01:48:21.381Z,16.83
2016-08-14T01:49:20.822Z,16.81
2016-08-14T01:50:19.762Z,16.76
2016-08-14T01:51:20.042Z,16.71
2016-08-14T01:52:19.991Z,16.6
2016-08-14T01:53:19.786Z,16.54
2016-08-14T01:54:21.577Z,16.5
2016-08-14T01:55:21.014Z,16.54
2016-08-14T01:56:20.570Z,16.5
2016-08-14T01:57:20.419Z,16.42
2016-08-14T01:58:21.718Z,16.51
2016-08-14T01:59:20.947Z,16.43
2016-08-14T02:00:20.968Z,16.35
2016-08-14T02:01:19.958Z,16.35
2016-08-14T02:02:22.239Z,16.42
2016-08-14T02:03:21.022Z,16.38
2016-08-14T02:04:21.006Z,16.39
2016-08-14T02:05:19.807Z,16.43
2016-08-14T02:06:20.914Z,16.38
2016-08-14T02:07:20.852Z,16.28
2016-08-14T02:08:20.191Z,16.16
2016-08-14T02:09:20.388Z,16.12
2016-08-14T02:10:20.487Z,16.13
2016-08-14T02:11:20.442Z,16.12
2016-08-14T02:12:22.038Z,16.2
2016-08-14T02:13:21.579Z,16.29
2016-08-14T02:14:20.610Z,16.21
2016-08-14T02:15:20.454Z,16.28
2016-08-14T02:16:20.481Z,16.31
2016-08-14T02:17:20.544Z,16.23
2016-08-14T02:18:20.644Z,16.13
2016-08-14T02:19:20.722Z,16.16
2016-08-14T02:20:20.754Z,16.16
2016-08-14T02:21:20.530Z,16.09
2016-08-14T02:22:22.061Z,16.1
2016-08-14T02:23:21.602Z,16.1
2016-08-14T02:24:22.089Z,16.09
2016-08-14T02:25:20.904Z,16.09
2016-08-14T02:26:22.033Z,16.04
2016-08-14T02:27:21.268Z,15.98
2016-08-14T02:28:20.633Z,16.04
2016-08-14T02:29:21.442Z,16
2016-08-14T02:30:20.982Z,15.76
2016-08-14T02:31:21.580Z,15.75
2016-08-14T02:32:22.306Z,15.67
2016-08-14T02:33:21.928Z,15.61
2016-08-14T02:34:21.402Z,15.64
2016-08-14T02:35:21.421Z,15.59
2016-08-14T02:36:21.143Z,15.61
2016-08-14T02:37:22.374Z,15.59
2016-08-14T02:38:23.449Z,15.61
2016-08-14T02:39:21.910Z,15.52
2016-08-14T02:40:22.619Z,15.52
2016-08-14T02:41:20.738Z,15.52
2016-08-14T02:42:21.708Z,15.62
2016-08-14T02:43:22.029Z,15.59
2016-08-14T02:44:22.242Z,15.68
2016-08-14T02:45:22.821Z,15.76
2016-08-14T02:46:22.798Z,15.76
2016-08-14T02:47:23.251Z,15.76
2016-08-14T02:48:22.107Z,15.67
2016-08-14T02:49:23.673Z,15.55
2016-08-14T02:50:21.977Z,15.47
2016-08-14T02:51:22.442Z,15.47
2016-08-14T02:52:21.970Z,15.54
2016-08-14T02:53:21.980Z,15.58
2016-08-14T02:54:22.065Z,15.54
2016-08-14T02:55:23.279Z,15.52
2016-08-14T02:56:22.371Z,15.46
2016-08-14T02:57:21.608Z,15.25
2016-08-14T02:58:23.660Z,15.14
2016-08-14T02:59:23.187Z,15.04
2016-08-14T03:00:22.258Z,15
2016-08-14T03:01:22.056Z,15.14
2016-08-14T03:02:21.655Z,15.11
2016-08-14T03:03:22.305Z,15.24
2016-08-14T03:04:23.323Z,15.31
2016-08-14T03:05:22.660Z,15.31
2016-08-14T03:06:23.924Z,15.36
2016-08-14T03:07:22.426Z,15.22
2016-08-14T03:08:22.302Z,15.03
2016-08-14T03:09:23.056Z,14.92
2016-08-14T03:10:22.292Z,14.69
2016-08-14T03:11:22.917Z,14.73
2016-08-14T03:12:22.569Z,14.89
2016-08-14T03:13:23.005Z,14.88
2016-08-14T03:14:22.123Z,14.85
2016-08-14T03:15:22.406Z,14.84
2016-08-14T03:16:21.828Z,14.81
2016-08-14T03:17:22.545Z,14.82
2016-08-14T03:18:22.797Z,14.91
2016-08-14T03:19:22.984Z,14.81
2016-08-14T03:20:21.958Z,14.84
2016-08-14T03:21:23.052Z,15
2016-08-14T03:22:23.245Z,14.96
2016-08-14T03:23:22.150Z,14.99
2016-08-14T03:24:22.045Z,15.02
2016-08-14T03:25:23.378Z,14.97
2016-08-14T03:26:23.492Z,14.73
2016-08-14T03:27:22.390Z,14.72
2016-08-14T03:28:21.720Z,14.81
2016-08-14T03:29:22.467Z,14.73
2016-08-14T03:30:22.162Z,14.66
2016-08-14T03:31:23.829Z,14.84
2016-08-14T03:32:23.244Z,14.82
2016-08-14T03:33:22.810Z,14.72
2016-08-14T03:34:22.335Z,14.81
2016-08-14T03:35:22.287Z,14.63
2016-08-14T03:36:23.004Z,14.51
2016-08-14T03:37:22.831Z,14.54
2016-08-14T03:38:22.784Z,14.51
2016-08-14T03:39:23.883Z,14.58
2016-08-14T03:40:22.322Z,14.69
2016-08-14T03:41:23.436Z,14.77
2016-08-14T03:42:22.164Z,14.7
2016-08-14T03:43:24.293Z,14.85
2016-08-14T03:44:23.327Z,14.84
2016-08-14T03:45:23.105Z,14.97
2016-08-14T03:46:23.805Z,14.92
2016-08-14T03:47:23.712Z,14.91
2016-08-14T03:48:22.808Z,14.91
2016-08-14T03:49:22.788Z,14.97
2016-08-14T03:50:23.045Z,15.02
2016-08-14T03:51:24.875Z,14.88
2016-08-14T03:52:22.647Z,14.7
2016-08-14T03:53:22.569Z,14.6
2016-08-14T03:54:23.929Z,14.66
2016-08-14T03:55:23.187Z,14.69
2016-08-14T03:56:23.179Z,14.68
2016-08-14T03:57:22.930Z,14.66
2016-08-14T03:58:24.320Z,14.72
2016-08-14T03:59:23.368Z,14.94
2016-08-14T04:00:24.550Z,14.92
2016-08-14T04:01:24.975Z,14.97
2016-08-14T04:02:23.427Z,14.99
2016-08-14T04:03:23.281Z,14.82
2016-08-14T04:04:24.085Z,14.7
2016-08-14T04:05:24.042Z,14.77
2016-08-14T04:06:23.366Z,14.85
2016-08-14T04:07:23.183Z,14.79
2016-08-14T04:08:23.024Z,14.91
2016-08-14T04:09:24.945Z,14.96
2016-08-14T04:10:23.514Z,15.04
2016-08-14T04:11:24.462Z,14.96
2016-08-14T04:12:23.988Z,14.96
2016-08-14T04:13:24.493Z,14.85
2016-08-14T04:14:24.298Z,14.97
2016-08-14T04:15:23.599Z,15.06
2016-08-14T04:16:24.057Z,15.07
2016-08-14T04:17:23.961Z,15.09
2016-08-14T04:18:24.390Z,15.11
2016-08-14T04:19:23.403Z,15.24
2016-08-14T04:20:24.496Z,15.18
2016-08-14T04:21:24.914Z,14.88
2016-08-14T04:22:24.620Z,15.03
2016-08-14T04:23:23.894Z,15.04
2016-08-14T04:24:23.353Z,14.99
2016-08-14T04:25:23.771Z,14.86
2016-08-14T04:26:23.958Z,14.66
2016-08-14T04:27:23.895Z,14.73
2016-08-14T04:28:24.856Z,14.73
2016-08-14T04:29:24.312Z,14.68
2016-08-14T04:30:24.369Z,14.73
2016-08-14T04:31:24.184Z,14.92
2016-08-14T04:32:23.271Z,15.06
2016-08-14T04:33:24.506Z,15.02
2016-08-14T04:34:25.705Z,15.02
2016-08-14T04:35:23.870Z,15.02
2016-08-14T04:36:23.416Z,15.02
2016-08-14T04:37:24.717Z,15
2016-08-14T04:38:24.351Z,14.99
2016-08-14T04:39:25.976Z,15.04
2016-08-14T04:40:24.014Z,15.06
2016-08-14T04:41:24.155Z,15.11
2016-08-14T04:42:24.135Z,15.07
2016-08-14T04:43:23.672Z,15.14
2016-08-14T04:44:26.296Z,15.04
2016-08-14T04:45:24.765Z,15.11
2016-08-14T04:46:25.060Z,15.21
2016-08-14T04:47:25.201Z,15.24
2016-08-14T04:48:25.051Z,15.17
2016-08-14T04:49:25.475Z,15.06
2016-08-14T04:50:25.539Z,14.99
2016-08-14T04:51:26.246Z,14.99
2016-08-14T04:52:25.004Z,15.03
2016-08-14T04:53:24.178Z,15.04
2016-08-14T04:54:25.878Z,15.04
2016-08-14T04:55:25.143Z,15.21
2016-08-14T04:56:25.056Z,15.21
2016-08-14T04:57:25.527Z,15.25
2016-08-14T04:58:25.471Z,15.11
2016-08-14T04:59:25.356Z,15.1
2016-08-14T05:00:24.367Z,15.06
2016-08-14T05:01:24.966Z,15.03
2016-08-14T05:02:25.304Z,15.07
2016-08-14T05:03:25.489Z,14.99
2016-08-14T05:04:25.575Z,15.07
2016-08-14T05:05:26.139Z,15.21
2016-08-14T05:06:25.068Z,15.25
2016-08-14T05:07:25.767Z,15.24
2016-08-14T05:08:25.404Z,15.35
2016-08-14T05:09:24.665Z,15.35
2016-08-14T05:10:26.023Z,15.25
2016-08-14T05:11:26.808Z,15.28
2016-08-14T05:12:26.276Z,15.31
2016-08-14T05:13:25.215Z,15.29
2016-08-14T05:14:26.310Z,15.36
2016-08-14T05:15:25.336Z,15.47
2016-08-14T05:16:24.797Z,15.51
2016-08-14T05:17:25.220Z,15.51
2016-08-14T05:18:24.707Z,15.61
2016-08-14T05:19:24.763Z,15.61
2016-08-14T05:20:24.715Z,15.67
2016-08-14T05:21:24.804Z,15.76
2016-08-14T05:22:27.210Z,15.79
2016-08-14T05:23:25.484Z,15.77
2016-08-14T05:24:24.812Z,15.88
2016-08-14T05:25:25.468Z,15.86
2016-08-14T05:26:26.769Z,15.94
2016-08-14T05:27:25.319Z,15.9
2016-08-14T05:28:26.180Z,15.95
2016-08-14T05:29:24.653Z,15.92
2016-08-14T05:30:25.876Z,15.84
2016-08-14T05:31:26.864Z,15.86
2016-08-14T05:32:26.053Z,15.73
2016-08-14T05:33:26.025Z,15.76
2016-08-14T05:34:25.905Z,15.7
2016-08-14T05:35:26.561Z,15.65
2016-08-14T05:36:26.319Z,15.68
2016-08-14T05:37:25.926Z,15.62
2016-08-14T05:38:25.727Z,15.75
2016-08-14T05:39:25.674Z,15.77
2016-08-14T05:40:25.318Z,15.82
2016-08-14T05:41:25.421Z,15.91
2016-08-14T05:42:26.395Z,15.88
2016-08-14T05:43:25.866Z,15.86
2016-08-14T05:44:26.737Z,15.91
2016-08-14T05:45:25.483Z,16.17
2016-08-14T05:46:26.354Z,16.12
2016-08-14T05:47:26.620Z,16.28
2016-08-14T05:48:25.922Z,16.39
2016-08-14T05:49:25.574Z,16.36
2016-08-14T05:50:26.213Z,16.38
2016-08-14T05:51:26.597Z,16.35
2016-08-14T05:52:27.174Z,16.23
2016-08-14T05:53:25.444Z,16.29
2016-08-14T05:54:25.399Z,16.31
2016-08-14T05:55:26.000Z,16.32
2016-08-14T05:56:25.633Z,16.39
2016-08-14T05:57:26.043Z,16.46
2016-08-14T05:58:26.545Z,16.47
2016-08-14T05:59:26.373Z,16.5
2016-08-14T06:00:26.496Z,16.5
2016-08-14T06:01:27.309Z,16.43
2016-08-14T06:02:28.041Z,16.47
2016-08-14T06:03:25.881Z,16.51
2016-08-14T06:04:26.042Z,16.65
2016-08-14T06:05:27.442Z,16.76
2016-08-14T06:06:27.696Z,17.04
2016-08-14T06:07:25.692Z,17.11
2016-08-14T06:08:26.462Z,17.24
2016-08-14T06:09:26.361Z,17.34
2016-08-14T06:10:27.718Z,17.44
2016-08-14T06:11:26.073Z,17.54
2016-08-14T06:12:27.792Z,17.64
2016-08-14T06:13:26.083Z,17.6
2016-08-14T06:14:27.092Z,17.51
2016-08-14T06:15:27.140Z,17.64
2016-08-14T06:16:27.161Z,17.64
2016-08-14T06:17:27.903Z,17.6
2016-08-14T06:18:27.312Z,17.48
2016-08-14T06:19:27.980Z,17.54
2016-08-14T06:20:27.087Z,17.41
2016-08-14T06:21:27.526Z,17.22
2016-08-14T06:22:26.524Z,17.22
2016-08-14T06:23:26.878Z,17.29
2016-08-14T06:24:26.301Z,17.15
2016-08-14T06:25:27.456Z,17.3
2016-08-14T06:26:27.779Z,17.23
2016-08-14T06:27:26.372Z,17.29
2016-08-14T06:28:27.209Z,17.24
2016-08-14T06:29:27.537Z,17.41
2016-08-14T06:30:27.886Z,17.46
2016-08-14T06:31:27.238Z,17.33
2016-08-14T06:32:26.773Z,17.34
2016-08-14T06:33:26.513Z,17.44
2016-08-14T06:34:28.211Z,17.59
2016-08-14T06:35:26.634Z,17.64
2016-08-14T06:36:28.138Z,17.67
2016-08-14T06:37:27.029Z,17.71
2016-08-14T06:38:27.274Z,17.71
2016-08-14T06:39:28.604Z,17.63
2016-08-14T06:40:28.174Z,17.54
2016-08-14T06:41:27.386Z,17.65
2016-08-14T06:42:27.889Z,17.79
2016-08-14T06:43:28.365Z,17.86
2016-08-14T06:44:27.844Z,17.86
2016-08-14T06:45:27.330Z,17.64
2016-08-14T06:46:27.891Z,17.71
2016-08-14T06:47:27.517Z,17.71
2016-08-14T06:48:28.163Z,17.52
2016-08-14T06:49:27.715Z,17.54
2016-08-14T06:50:27.121Z,17.48
2016-08-14T06:51:27.538Z,17.67
2016-08-14T06:52:28.063Z,17.8
2016-08-14T06:53:27.206Z,17.68
2016-08-14T06:54:28.546Z,17.56
2016-08-14T06:55:26.846Z,17.65
2016-08-14T06:56:28.942Z,17.67
2016-08-14T06:57:27.141Z,17.8
2016-08-14T06:58:28.107Z,17.78
2016-08-14T06:59:27.365Z,17.7
2016-08-14T07:00:27.988Z,17.59
2016-08-14T07:01:28.864Z,17.56
2016-08-14T07:02:28.131Z,17.67
2016-08-14T07:03:27.414Z,17.63
2016-08-14T07:04:30.152Z,17.68
2016-08-14T07:05:27.752Z,17.68
2016-08-14T07:06:28.766Z,17.51
2016-08-14T07:07:27.680Z,17.38
2016-08-14T07:08:26.961Z,17.51
2016-08-14T07:09:27.827Z,17.51
2016-08-14T07:10:27.874Z,17.51
2016-08-14T07:11:27.765Z,17.57
2016-08-14T07:12:29.536Z,17.6
2016-08-14T07:13:28.110Z,17.67
2016-08-14T07:14:28.857Z,17.72
2016-08-14T07:15:28.310Z,17.86
2016-08-14T07:16:28.563Z,17.86
2016-08-14T07:17:28.657Z,17.95
2016-08-14T07:18:29.295Z,17.74
2016-08-14T07:19:29.577Z,17.76
2016-08-14T07:20:28.167Z,17.65
2016-08-14T07:21:30.132Z,17.64
2016-08-14T07:22:28.463Z,17.65
2016-08-14T07:23:28.854Z,17.67
2016-08-14T07:24:27.919Z,17.71
2016-08-14T07:25:30.707Z,17.74
2016-08-14T07:26:29.862Z,17.72
2016-08-14T07:27:28.071Z,17.65
2016-08-14T07:28:30.395Z,17.7
2016-08-14T07:29:28.112Z,17.79
2016-08-14T07:30:28.387Z,17.71
2016-08-14T07:31:28.250Z,17.68
2016-08-14T07:32:29.895Z,17.49
2016-08-14T07:33:30.297Z,17.51
2016-08-14T07:34:28.194Z,17.44
2016-08-14T07:35:28.174Z,17.49
2016-08-14T07:36:29.919Z,17.36
2016-08-14T07:37:30.238Z,17.48
2016-08-14T07:38:29.480Z,17.57
2016-08-14T07:39:29.312Z,17.52
2016-08-14T07:40:28.972Z,17.68
2016-08-14T07:41:29.355Z,17.52
2016-08-14T07:42:29.123Z,17.52
2016-08-14T07:43:28.418Z,17.59
2016-08-14T07:44:28.374Z,17.65
2016-08-14T07:45:28.585Z,17.59
2016-08-14T07:46:28.899Z,17.71
2016-08-14T07:47:28.263Z,17.68
2016-08-14T07:48:29.118Z,17.79
2016-08-14T07:49:28.205Z,17.64
2016-08-14T07:50:28.370Z,17.83
2016-08-14T07:51:29.266Z,17.82
2016-08-14T07:52:30.598Z,17.95
2016-08-14T07:53:31.065Z,17.89
2016-08-14T07:54:29.334Z,18.08
2016-08-14T07:55:29.826Z,18.66
2016-08-14T07:56:29.336Z,18.26
2016-08-14T07:57:29.837Z,18.35
2016-08-14T07:58:29.542Z,18.37
2016-08-14T07:59:30.420Z,18.43
2016-08-14T08:00:29.939Z,18.59
2016-08-14T08:01:29.841Z,19
2016-08-14T08:02:30.181Z,19.11
2016-08-14T08:03:30.247Z,18.77
2016-08-14T08:04:29.504Z,18.58
2016-08-14T08:05:29.815Z,18.49
2016-08-14T08:06:29.310Z,18.65
2016-08-14T08:07:29.157Z,18.68
2016-08-14T08:08:30.178Z,18.71
2016-08-14T08:09:30.455Z,18.73
2016-08-14T08:10:30.473Z,18.78
2016-08-14T08:11:29.876Z,18.53
2016-08-14T08:12:29.577Z,18.5
2016-08-14T08:13:29.345Z,18.41
2016-08-14T08:14:29.026Z,18.55
2016-08-14T08:15:30.735Z,18.56
2016-08-14T08:16:31.230Z,18.92
2016-08-14T08:17:31.025Z,18.7
2016-08-14T08:18:29.325Z,18.43
2016-08-14T08:19:29.618Z,18.38
2016-08-14T08:20:30.274Z,18.38
2016-08-14T08:21:29.653Z,18.4
2016-08-14T08:22:30.381Z,18.31
2016-08-14T08:23:29.531Z,18.62
2016-08-14T08:24:30.485Z,18.65
2016-08-14T08:25:30.309Z,18.58
2016-08-14T08:26:30.156Z,18.75
2016-08-14T08:27:30.696Z,18.73
2016-08-14T08:28:29.935Z,18.66
2016-08-14T08:29:30.129Z,18.89
2016-08-14T08:30:30.515Z,18.78
2016-08-14T08:31:30.233Z,19
2016-08-14T08:32:30.681Z,19.19
2016-08-14T08:33:30.222Z,19.73
2016-08-14T08:34:32.002Z,20.22
2016-08-14T08:35:29.845Z,20.84
2016-08-14T08:36:31.003Z,21.11
2016-08-14T08:37:30.300Z,21.33
2016-08-14T08:38:32.031Z,21.21
2016-08-14T08:39:30.352Z,20.32
2016-08-14T08:40:31.467Z,20
2016-08-14T08:41:31.156Z,19.77
2016-08-14T08:42:30.383Z,19.69
2016-08-14T08:43:32.145Z,19.66
2016-08-14T08:44:31.449Z,19.66
2016-08-14T08:45:31.090Z,19.55
2016-08-14T08:46:30.378Z,19.58
2016-08-14T08:47:31.675Z,19.48
2016-08-14T08:48:30.043Z,19.49
2016-08-14T08:49:32.011Z,19.29
2016-08-14T08:50:31.035Z,19.4
2016-08-14T08:51:30.855Z,19.52
2016-08-14T08:52:31.385Z,19.71
2016-08-14T08:53:30.838Z,19.63
2016-08-14T08:54:30.347Z,19.45
2016-08-14T08:55:30.159Z,19.66
2016-08-14T08:56:30.768Z,19.74
2016-08-14T08:57:30.806Z,19.58
2016-08-14T08:58:30.486Z,19.56
2016-08-14T08:59:32.187Z,19.37
2016-08-14T09:00:30.960Z,19.69
2016-08-14T09:01:31.776Z,20.06
2016-08-14T09:02:30.365Z,20.11
2016-08-14T09:03:31.674Z,20.47
2016-08-14T09:04:31.453Z,20.6
2016-08-14T09:05:30.705Z,21
2016-08-14T09:06:32.314Z,21.06
2016-08-14T09:07:31.382Z,20.56
2016-08-14T09:08:31.788Z,20.28
2016-08-14T09:09:30.533Z,20.59
2016-08-14T09:10:31.616Z,21.18
2016-08-14T09:11:30.864Z,20.87
2016-08-14T09:12:31.249Z,21.12
2016-08-14T09:13:31.699Z,20.47
2016-08-14T09:14:31.043Z,20.52
2016-08-14T09:15:31.814Z,20.72
2016-08-14T09:16:31.802Z,20.95
2016-08-14T09:17:32.272Z,20.97
2016-08-14T09:18:32.155Z,20.81
2016-08-14T09:19:30.532Z,21.18
2016-08-14T09:20:33.206Z,21.21
2016-08-14T09:21:32.564Z,21.43
2016-08-14T09:22:31.252Z,21.32
2016-08-14T09:23:31.528Z,21.33
2016-08-14T09:24:31.194Z,20.69
2016-08-14T09:25:33.181Z,20.56
2016-08-14T09:26:32.381Z,20.92
2016-08-14T09:27:31.666Z,21.07
2016-08-14T09:28:32.173Z,21.46
2016-08-14T09:29:32.038Z,21.06
2016-08-14T09:30:32.153Z,20.6
2016-08-14T09:31:31.888Z,20.47
2016-08-14T09:32:31.179Z,20.92
2016-08-14T09:33:33.242Z,20.62
2016-08-14T09:34:31.861Z,20.74
2016-08-14T09:35:33.592Z,20.63
2016-08-14T09:36:31.929Z,20.55
2016-08-14T09:37:33.273Z,20.28
2016-08-14T09:38:33.801Z,20.88
2016-08-14T09:39:31.969Z,20.95
2016-08-14T09:40:32.830Z,20.69
2016-08-14T09:41:33.027Z,20.48
2016-08-14T09:42:33.465Z,20.7
2016-08-14T09:43:32.601Z,20.74
2016-08-14T09:44:32.001Z,21
2016-08-14T09:45:31.870Z,21.37
2016-08-14T09:46:33.137Z,21.6
2016-08-14T09:47:33.720Z,21.51
2016-08-14T09:48:32.453Z,21.7
2016-08-14T09:49:33.256Z,22.26
2016-08-14T09:50:32.859Z,22.28
2016-08-14T09:51:32.964Z,22.29
2016-08-14T09:52:32.385Z,22.39
2016-08-14T09:53:32.728Z,22.69
2016-08-14T09:54:32.342Z,22.02
2016-08-14T09:55:33.006Z,21.62
2016-08-14T09:56:34.338Z,21.61
2016-08-14T09:57:34.873Z,21.7
2016-08-14T09:58:32.782Z,21.58
2016-08-14T09:59:32.063Z,21.32
2016-08-14T10:00:33.536Z,21.3
2016-08-14T10:01:32.933Z,21.36
2016-08-14T10:02:33.352Z,21.09
2016-08-14T10:03:32.290Z,21.15
2016-08-14T10:04:35.305Z,21.39
2016-08-14T10:05:32.870Z,21.42
2016-08-14T10:06:33.678Z,21.11
2016-08-14T10:07:33.602Z,21.29
2016-08-14T10:08:32.666Z,21.17
2016-08-14T10:09:34.106Z,21.39
2016-08-14T10:10:33.275Z,21.33
2016-08-14T10:11:33.211Z,21.14
2016-08-14T10:12:35.323Z,21.32
2016-08-14T10:13:33.637Z,21.02
2016-08-14T10:14:33.271Z,21.32
2016-08-14T10:15:35.635Z,21.33
2016-08-14T10:16:33.507Z,21.32
2016-08-14T10:17:32.878Z,21.18
2016-08-14T10:18:34.554Z,21.07
2016-08-14T10:19:33.662Z,21.2
2016-08-14T10:20:33.640Z,21.12
2016-08-14T10:21:33.094Z,21.35
2016-08-14T10:22:34.728Z,21.64
2016-08-14T10:23:33.146Z,21.79
2016-08-14T10:24:33.378Z,21.55
2016-08-14T10:25:33.700Z,21.85
2016-08-14T10:26:34.802Z,22.17
2016-08-14T10:27:33.054Z,21.96
2016-08-14T10:28:33.459Z,22.18
2016-08-14T10:29:33.852Z,21.92
2016-08-14T10:30:34.849Z,21.54
2016-08-14T10:31:36.361Z,21.32
2016-08-14T10:32:33.458Z,21.83
2016-08-14T10:33:33.615Z,22.22
2016-08-14T10:34:33.353Z,21.62
2016-08-14T10:35:34.881Z,21.82
2016-08-14T10:36:34.814Z,22.6
2016-08-14T10:37:33.566Z,22.13
2016-08-14T10:38:33.483Z,22.15
2016-08-14T10:39:33.568Z,21.55
2016-08-14T10:40:34.476Z,21.52
2016-08-14T10:41:34.362Z,21.66
2016-08-14T10:42:35.223Z,21.57
2016-08-14T10:43:34.277Z,21.7
2016-08-14T10:44:36.448Z,21.67
2016-08-14T10:45:34.705Z,21.51
2016-08-14T10:46:34.689Z,21.62
2016-08-14T10:47:36.448Z,22
2016-08-14T10:48:35.412Z,22.29
2016-08-14T10:49:35.163Z,22.55
2016-08-14T10:50:35.043Z,22.2
2016-08-14T10:51:34.870Z,22.28
2016-08-14T10:52:34.852Z,21.93
2016-08-14T10:53:35.202Z,21.99
2016-08-14T10:54:35.142Z,22.1
2016-08-14T10:55:34.622Z,21.42
2016-08-14T10:56:35.042Z,21.91
2016-08-14T10:57:34.778Z,22.06
2016-08-14T10:58:35.004Z,22.18
2016-08-14T10:59:35.026Z,22.39
2016-08-14T11:00:34.575Z,21.96
2016-08-14T11:01:34.484Z,21.98
2016-08-14T11:02:35.058Z,22.62
2016-08-14T11:03:34.752Z,22.57
2016-08-14T11:04:36.088Z,22.69
2016-08-14T11:05:36.218Z,22.66
2016-08-14T11:06:35.326Z,22.69
2016-08-14T11:07:34.913Z,23.15
2016-08-14T11:08:35.181Z,23.62
2016-08-14T11:09:34.694Z,23.18
2016-08-14T11:10:35.635Z,23.13
2016-08-14T11:11:36.848Z,22.96
2016-08-14T11:12:35.450Z,22.7
2016-08-14T11:13:34.856Z,22.9
2016-08-14T11:14:35.151Z,22.45
2016-08-14T11:15:35.162Z,22.3
2016-08-14T11:16:35.183Z,22.76
2016-08-14T11:17:36.130Z,22.98
2016-08-14T11:18:34.986Z,23.28
2016-08-14T11:19:36.152Z,23.73
2016-08-14T11:20:35.002Z,22.72
2016-08-14T11:21:35.746Z,22.57
2016-08-14T11:22:36.496Z,23.23
2016-08-14T11:23:37.088Z,24.21
2016-08-14T11:24:36.445Z,24.55
2016-08-14T11:25:35.352Z,23.46
2016-08-14T11:26:35.980Z,23.68
2016-08-14T11:27:35.832Z,24.11
2016-08-14T11:28:35.181Z,25.06
2016-08-14T11:29:36.260Z,24.16
2016-08-14T11:30:35.953Z,24.16
2016-08-14T11:31:35.521Z,24.3
2016-08-14T11:32:36.214Z,25.16
2016-08-14T11:33:37.172Z,25.25
2016-08-14T11:34:36.151Z,25.7
2016-08-14T11:35:35.651Z,24.73
2016-08-14T11:36:35.790Z,25.53
2016-08-14T11:37:36.275Z,23.8
2016-08-14T11:38:35.598Z,23.12
2016-08-14T11:39:36.932Z,23.51
2016-08-14T11:40:36.950Z,23.88
2016-08-14T11:41:36.203Z,23.92
2016-08-14T11:42:35.908Z,24.3
2016-08-14T11:43:35.936Z,24.13
2016-08-14T11:44:36.490Z,24.95
2016-08-14T11:45:36.804Z,24.86
2016-08-14T11:46:37.035Z,25.5
2016-08-14T11:47:37.335Z,25.36
2016-08-14T11:48:36.432Z,26.07
2016-08-14T11:49:35.842Z,25.58
2016-08-14T11:50:36.832Z,25.47
2016-08-14T11:51:37.764Z,25.04
2016-08-14T11:52:36.347Z,25.55
2016-08-14T11:53:37.589Z,24.18
2016-08-14T11:54:37.089Z,24.39
2016-08-14T11:55:37.034Z,24.21
2016-08-14T11:56:36.965Z,25.38
2016-08-14T11:57:36.125Z,24.88
2016-08-14T11:58:36.281Z,23.86
2016-08-14T11:59:36.832Z,24.76
2016-08-14T12:00:36.794Z,24.38
2016-08-14T12:01:36.524Z,24.1
2016-08-14T12:02:38.479Z,24.36
2016-08-14T12:03:37.298Z,24.18
2016-08-14T12:04:38.464Z,24.98
2016-08-14T12:05:37.734Z,23.87
2016-08-14T12:06:37.820Z,23.12
2016-08-14T12:07:37.493Z,24.13
2016-08-14T12:08:39.661Z,24.48
2016-08-14T12:09:37.329Z,23.96
2016-08-14T12:10:38.730Z,24.06
2016-08-14T12:11:37.898Z,23.92
2016-08-14T12:12:37.499Z,23.23
2016-08-14T12:13:38.602Z,23.08
2016-08-14T12:14:37.583Z,22.94
2016-08-14T12:15:37.159Z,22.84
2016-08-14T12:16:38.708Z,22.85
2016-08-14T12:17:39.404Z,22.87
2016-08-14T12:18:37.298Z,22.94
2016-08-14T12:19:37.583Z,23.03
2016-08-14T12:20:37.986Z,23.32
2016-08-14T12:21:37.836Z,23.69
2016-08-14T12:22:37.576Z,23.28
2016-08-14T12:23:38.530Z,23.23
2016-08-14T12:24:37.352Z,23.54
2016-08-14T12:25:37.868Z,23.4
2016-08-14T12:26:37.445Z,23.54
2016-08-14T12:27:38.199Z,23.44
2016-08-14T12:28:38.647Z,23.87
2016-08-14T12:29:40.302Z,23.69
2016-08-14T12:30:38.194Z,23.81
2016-08-14T12:31:38.674Z,24.39
2016-08-14T12:32:39.390Z,24.57
2016-08-14T12:33:38.378Z,24.54
2016-08-14T12:34:38.651Z,24.61
2016-08-14T12:35:38.446Z,24.51
2016-08-14T12:36:40.014Z,24.03
2016-08-14T12:37:37.996Z,24.7
2016-08-14T12:38:38.846Z,24.48
2016-08-14T12:39:37.940Z,25.06
2016-08-14T12:40:37.905Z,24.93
2016-08-14T12:41:40.270Z,25.13
2016-08-14T12:42:39.535Z,25.11
2016-08-14T12:43:38.280Z,25.73
2016-08-14T12:44:38.018Z,25.25
2016-08-14T12:45:39.060Z,24.89
2016-08-14T12:46:38.308Z,25.14
2016-08-14T12:47:38.666Z,25.22
2016-08-14T12:48:40.378Z,26.22
2016-08-14T12:49:38.710Z,25.13
2016-08-14T12:50:38.277Z,24.73
2016-08-14T12:51:38.594Z,25.84
2016-08-14T12:52:38.860Z,26.03
2016-08-14T12:53:40.070Z,25.22
2016-08-14T12:54:40.116Z,24.68
2016-08-14T12:55:39.873Z,24.77